Time;durP1;ratioP1;P1;durP2;ratioP2;P2;SDS_P1;SDS_P2;PMS_P1;PMS_P2;Temp;Humidity;BMP_temperature;BMP_pressure;BME280_temperature;BME280_humidity;BME280_pressure;Samples;Min_cycle;Max_cycle;Signal;HPM_P1;HPM_P2
2021/12/18 00:01:17;;;;;;;169.87;160.40;;;9.00;99.90;;;;;;5028334;28;20205;-78
2021/12/18 00:03:44;;;;;;;172.00;162.60;;;9.00;99.90;;;;;;5004696;28;20182;-79
2021/12/18 00:06:09;;;;;;;169.00;159.47;;;9.00;99.90;;;;;;5011093;28;20563;-79
2021/12/18 00:08:36;;;;;;;173.43;163.57;;;9.00;99.90;;;;;;4996052;28;20210;-79
2021/12/18 00:11:02;;;;;;;165.97;156.33;;;9.00;99.90;;;;;;5027575;28;20183;-79
2021/12/18 00:13:27;;;;;;;175.30;165.50;;;9.00;99.90;;;;;;5028702;28;20587;-78
2021/12/18 00:15:53;;;;;;;168.17;158.57;;;9.00;99.90;;;;;;5011250;28;20206;-79
2021/12/18 00:18:19;;;;;;;173.40;163.40;;;9.00;99.90;;;;;;5019675;28;20194;-80
2021/12/18 00:20:45;;;;;;;161.60;152.23;;;9.00;99.90;;;;;;5019733;28;20546;-79
2021/12/18 00:23:11;;;;;;;172.37;162.83;;;9.00;99.90;;;;;;4986122;28;20238;-80
2021/12/18 00:25:37;;;;;;;172.87;163.07;;;9.00;99.90;;;;;;5021363;28;20198;-79
2021/12/18 00:28:03;;;;;;;170.73;161.13;;;9.00;99.90;;;;;;5010760;28;20311;-78
2021/12/18 00:30:29;;;;;;;161.77;152.27;;;9.00;99.90;;;;;;5003243;28;20722;-79
2021/12/18 00:32:54;;;;;;;169.40;159.80;;;9.00;99.90;;;;;;5027948;28;20284;-80
2021/12/18 00:35:20;;;;;;;168.67;158.87;;;9.00;99.90;;;;;;4978679;28;20257;-79
2021/12/18 00:37:46;;;;;;;165.67;156.17;;;9.00;99.90;;;;;;5010286;28;20660;-80
2021/12/18 00:40:19;;;;;;;174.93;164.87;;;9.00;99.90;;;;;;5009631;28;20191;-79
2021/12/18 00:43:21;;;;;;;174.57;164.17;;;8.90;99.90;;;;;;5002824;28;20198;-80
2021/12/18 00:45:31;;;;;;;174.70;164.80;;;8.90;99.90;;;;;;5025252;28;20201;-80
2021/12/18 00:47:57;;;;;;;174.83;164.63;;;8.90;99.90;;;;;;5009321;28;20183;-79
2021/12/18 00:50:26;;;;;;;171.70;161.53;;;9.00;99.90;;;;;;5027387;28;20308;-79
2021/12/18 00:52:52;;;;;;;165.83;156.07;;;8.90;99.90;;;;;;5008761;28;20289;-80
2021/12/18 00:55:22;;;;;;;166.17;156.47;;;8.90;99.90;;;;;;4994396;28;20332;-80
2021/12/18 00:57:49;;;;;;;162.67;153.27;;;8.90;99.90;;;;;;5026537;28;20202;-80
2021/12/18 01:00:22;;;;;;;157.80;148.50;;;8.90;99.90;;;;;;5018141;28;20186;-79
2021/12/18 01:02:53;;;;;;;163.80;154.50;;;8.90;99.90;;;;;;5026521;28;20215;-80
2021/12/18 01:05:19;;;;;;;161.80;152.50;;;8.90;99.90;;;;;;5009431;28;20578;-78
2021/12/18 01:07:45;;;;;;;154.93;146.03;;;8.90;99.90;;;;;;5026287;28;20190;-79
2021/12/18 01:12:45;;;;;;;154.77;145.70;;;9.00;99.90;;;;;;5020913;28;20211;-78
2021/12/18 01:15:23;;;;;;;159.13;149.80;;;9.00;99.90;;;;;;5025916;28;20215;-78
2021/12/18 01:23:18;;;;;;;159.83;150.47;;;9.10;99.90;;;;;;5027496;28;20245;-78
2021/12/18 01:25:44;;;;;;;159.97;150.77;;;9.00;99.90;;;;;;5009276;28;20222;-80
2021/12/18 01:28:10;;;;;;;159.97;150.47;;;9.00;99.90;;;;;;4993393;28;20322;-79
2021/12/18 01:30:35;;;;;;;161.90;152.47;;;9.10;99.90;;;;;;5026085;28;20282;-79
2021/12/18 01:33:01;;;;;;;160.13;150.53;;;9.10;99.90;;;;;;5003480;28;20211;-79
2021/12/18 01:35:27;;;;;;;162.60;152.80;;;9.10;99.90;;;;;;5012402;28;20231;-79
2021/12/18 01:37:53;;;;;;;165.50;155.80;;;9.10;99.90;;;;;;5031083;28;20753;-79
2021/12/18 01:40:22;;;;;;;166.67;156.97;;;9.00;99.90;;;;;;5029164;28;20269;-78
2021/12/18 01:45:39;;;;;;;168.50;158.40;;;9.00;99.90;;;;;;5014412;28;20651;-78
2021/12/18 01:53:34;;;;;;;163.97;154.27;;;9.00;99.90;;;;;;5002088;28;20337;-79
2021/12/18 01:56:00;;;;;;;164.63;154.97;;;9.00;99.90;;;;;;5013794;28;20230;-79
2021/12/18 01:58:27;;;;;;;165.53;155.23;;;9.00;99.90;;;;;;5030438;28;20191;-80
2021/12/18 02:00:55;;;;;;;162.10;152.70;;;9.00;99.90;;;;;;5020826;28;20194;-79
2021/12/18 02:03:22;;;;;;;164.20;154.60;;;9.00;99.90;;;;;;5030236;28;20266;-79
2021/12/18 02:05:49;;;;;;;163.83;154.03;;;9.00;99.90;;;;;;4995496;28;20207;-80
2021/12/18 02:08:19;;;;;;;164.23;154.40;;;9.00;99.90;;;;;;5030709;28;20187;-78
2021/12/18 02:10:50;;;;;;;164.27;154.40;;;9.00;99.90;;;;;;5010842;28;20526;-78
2021/12/18 02:21:13;;;;;;;155.37;146.47;;;9.00;99.90;;;;;;5029520;28;20221;-80
2021/12/18 02:23:40;;;;;;;158.03;148.97;;;9.00;99.90;;;;;;4996410;28;20252;-80
2021/12/18 02:26:05;;;;;;;156.77;147.77;;;9.00;99.90;;;;;;5010924;28;20209;-78
2021/12/18 02:28:31;;;;;;;149.53;140.87;;;9.00;99.90;;;;;;5011617;28;20199;-79
2021/12/18 02:30:59;;;;;;;159.30;150.40;;;9.00;99.90;;;;;;5005568;28;20660;-80
2021/12/18 02:33:26;;;;;;;154.30;145.50;;;9.10;99.90;;;;;;5012198;28;21120;-79
2021/12/18 02:35:55;;;;;;;156.40;147.70;;;9.10;99.90;;;;;;5021134;28;20218;-79
2021/12/18 02:38:56;;;;;;;153.47;144.87;;;9.20;99.90;;;;;;5004047;28;20202;-78
2021/12/18 02:41:39;;;;;;;151.70;142.93;;;9.20;99.90;;;;;;5028544;28;20245;-79
2021/12/18 02:44:08;;;;;;;155.27;146.27;;;9.20;99.90;;;;;;4998709;28;20810;-78
2021/12/18 02:46:35;;;;;;;151.53;142.83;;;9.10;99.90;;;;;;5028359;28;20632;-80
2021/12/18 02:49:13;;;;;;;156.17;147.17;;;9.00;99.90;;;;;;4995509;28;20235;-78
2021/12/18 02:51:39;;;;;;;152.47;143.77;;;9.00;99.90;;;;;;5020363;28;20283;-79
2021/12/18 02:54:06;;;;;;;148.90;140.20;;;9.00;99.90;;;;;;5013607;28;20282;-79
2021/12/18 02:56:32;;;;;;;156.80;147.90;;;9.00;99.90;;;;;;5004544;28;20674;-78
2021/12/18 02:59:04;;;;;;;158.30;149.37;;;9.00;99.90;;;;;;4979128;28;20187;-78
2021/12/18 03:01:30;;;;;;;158.27;149.17;;;9.00;99.90;;;;;;5030112;28;20178;-77
2021/12/18 03:03:57;;;;;;;154.63;145.50;;;9.00;99.90;;;;;;5020678;28;20215;-78
2021/12/18 03:06:37;;;;;;;150.57;141.83;;;9.00;99.90;;;;;;5029283;28;20321;-79
2021/12/18 03:25:08;;;;;;;156.33;147.27;;;9.00;99.90;;;;;;5005900;28;20183;-78
2021/12/18 03:27:33;;;;;;;156.03;147.17;;;9.00;99.90;;;;;;5007996;28;20171;-79
2021/12/18 03:29:59;;;;;;;156.57;147.50;;;9.00;99.90;;;;;;5011373;28;20606;-80
2021/12/18 03:32:26;;;;;;;156.53;147.53;;;9.00;99.90;;;;;;5028600;28;20215;-79
2021/12/18 03:34:52;;;;;;;156.37;147.37;;;8.90;99.90;;;;;;5020329;28;20256;-79
2021/12/18 03:37:19;;;;;;;158.43;149.43;;;9.00;99.90;;;;;;5010327;28;20270;-79
2021/12/18 03:39:46;;;;;;;156.23;147.43;;;9.00;99.90;;;;;;5022146;28;20502;-79
2021/12/18 03:42:12;;;;;;;158.50;149.10;;;9.00;99.90;;;;;;5035458;28;20183;-78
2021/12/18 03:44:38;;;;;;;156.10;146.83;;;9.00;99.90;;;;;;5011252;28;20572;-79
2021/12/18 03:47:04;;;;;;;153.97;144.80;;;9.00;99.90;;;;;;5010874;28;20442;-78
2021/12/18 03:49:30;;;;;;;156.20;147.00;;;9.00;99.90;;;;;;5020365;28;20189;-80
2021/12/18 03:51:56;;;;;;;157.10;148.10;;;9.00;99.90;;;;;;5003580;28;20202;-79
2021/12/18 03:54:22;;;;;;;158.03;148.87;;;8.90;99.90;;;;;;5002968;28;20191;-77
2021/12/18 03:56:48;;;;;;;155.40;146.50;;;8.90;99.90;;;;;;5027193;28;20636;-78
2021/12/18 03:59:14;;;;;;;157.97;148.87;;;8.90;99.90;;;;;;4986257;28;20269;-80
2021/12/18 04:01:39;;;;;;;157.37;148.27;;;8.90;99.90;;;;;;5003600;28;20191;-79
2021/12/18 04:04:06;;;;;;;158.60;149.20;;;8.90;99.90;;;;;;5020700;28;20297;-79
2021/12/18 04:06:32;;;;;;;160.70;151.20;;;8.90;99.90;;;;;;5027897;28;20194;-79
2021/12/18 04:08:58;;;;;;;160.23;150.90;;;8.90;99.90;;;;;;5028862;28;20206;-79
2021/12/18 04:11:23;;;;;;;159.93;150.50;;;8.90;99.90;;;;;;5027836;28;20260;-79
2021/12/18 04:13:49;;;;;;;158.77;149.17;;;8.90;99.90;;;;;;5003454;28;20210;-79
2021/12/18 04:16:16;;;;;;;161.57;152.10;;;8.90;99.90;;;;;;5003720;28;20201;-80
2021/12/18 04:18:42;;;;;;;160.73;151.13;;;8.90;99.90;;;;;;5028124;28;20183;-80
2021/12/18 04:21:08;;;;;;;156.73;147.30;;;8.90;99.90;;;;;;5028520;28;20236;-78
2021/12/18 04:23:34;;;;;;;159.97;150.73;;;8.90;99.90;;;;;;5027730;28;20678;-78
2021/12/18 04:25:59;;;;;;;157.40;148.27;;;8.90;99.90;;;;;;4986608;28;20728;-78
2021/12/18 04:28:25;;;;;;;159.00;149.83;;;8.90;99.90;;;;;;5028522;28;20222;-79
2021/12/18 04:30:51;;;;;;;161.03;151.73;;;8.80;99.90;;;;;;5026311;28;20257;-78
2021/12/18 04:33:17;;;;;;;163.13;153.70;;;8.80;99.90;;;;;;4977479;28;20217;-80
2021/12/18 04:35:43;;;;;;;159.20;149.60;;;8.80;99.90;;;;;;5010250;28;20198;-79
2021/12/18 04:38:09;;;;;;;162.90;153.47;;;8.80;99.90;;;;;;5001976;28;20187;-78
2021/12/18 04:40:36;;;;;;;158.60;149.33;;;8.80;99.90;;;;;;5010411;28;20765;-78
2021/12/18 04:43:03;;;;;;;158.50;148.97;;;8.80;99.90;;;;;;5009545;28;20215;-79
2021/12/18 04:45:29;;;;;;;153.53;144.47;;;8.80;99.90;;;;;;5019102;28;20225;-79
2021/12/18 04:47:55;;;;;;;158.67;149.43;;;8.80;99.90;;;;;;5026168;28;20198;-78
2021/12/18 04:50:22;;;;;;;159.33;149.93;;;8.80;99.90;;;;;;5018932;28;20778;-79
2021/12/18 04:52:48;;;;;;;156.53;147.43;;;8.80;99.90;;;;;;4992270;28;20627;-79
2021/12/18 04:55:14;;;;;;;161.73;152.30;;;8.80;99.90;;;;;;5009247;28;20179;-80
2021/12/18 04:57:39;;;;;;;161.03;151.87;;;8.80;99.90;;;;;;5018540;28;20202;-78
2021/12/18 05:00:08;;;;;;;166.03;156.23;;;8.80;99.90;;;;;;5009943;28;20202;-78
2021/12/18 05:02:37;;;;;;;170.70;160.83;;;8.70;99.90;;;;;;5025048;28;20191;-79
2021/12/18 05:05:05;;;;;;;172.57;162.63;;;8.70;99.90;;;;;;5027202;28;20274;-79
2021/12/18 05:07:31;;;;;;;173.03;163.07;;;8.70;99.90;;;;;;5028124;28;20313;-78
2021/12/18 05:09:57;;;;;;;170.20;160.20;;;8.60;99.90;;;;;;5013497;28;20264;-77
2021/12/18 05:12:23;;;;;;;178.27;168.03;;;8.60;99.90;;;;;;5014523;28;20217;-79
2021/12/18 05:14:49;;;;;;;181.83;171.63;;;8.60;99.90;;;;;;5013883;28;20598;-80
2021/12/18 05:17:14;;;;;;;182.57;171.93;;;8.50;99.90;;;;;;4998324;28;20179;-79
2021/12/18 05:19:40;;;;;;;188.87;177.97;;;8.50;99.90;;;;;;5014360;28;20229;-80
2021/12/18 05:22:06;;;;;;;183.10;172.37;;;8.60;99.90;;;;;;5013541;28;20249;-79
2021/12/18 05:24:32;;;;;;;190.77;179.07;;;8.60;99.90;;;;;;5007967;28;20203;-78
2021/12/18 05:26:58;;;;;;;207.33;195.50;;;8.60;99.90;;;;;;5006360;28;20221;-79
2021/12/18 05:29:24;;;;;;;199.80;188.07;;;8.50;99.90;;;;;;5029980;28;20198;-78
2021/12/18 05:31:50;;;;;;;217.73;205.27;;;8.50;99.90;;;;;;4995692;28;20766;-78
2021/12/18 05:34:22;;;;;;;223.27;210.23;;;8.50;99.90;;;;;;5013977;28;20249;-78
2021/12/18 05:39:23;;;;;;;242.27;228.10;;;8.50;99.90;;;;;;5013338;28;20210;-79
2021/12/18 05:41:50;;;;;;;232.07;218.73;;;8.50;99.90;;;;;;5005571;28;20218;-78
2021/12/18 05:44:21;;;;;;;224.77;212.30;;;8.50;99.90;;;;;;5005508;28;20281;-78
2021/12/18 05:46:47;;;;;;;222.53;210.23;;;8.40;99.90;;;;;;5029442;28;20249;-78
2021/12/18 05:49:13;;;;;;;215.20;203.23;;;8.30;99.90;;;;;;5030444;28;20218;-79
2021/12/18 05:51:39;;;;;;;198.73;187.63;;;8.30;99.90;;;;;;5006427;28;20229;-79
2021/12/18 05:54:06;;;;;;;203.80;192.50;;;8.30;99.90;;;;;;4989073;28;20222;-80
2021/12/18 05:56:33;;;;;;;188.90;177.93;;;8.30;99.90;;;;;;5022925;28;20790;-79
2021/12/18 05:58:59;;;;;;;182.67;172.20;;;8.30;99.90;;;;;;5027224;28;20273;-78
2021/12/18 06:01:25;;;;;;;187.30;176.40;;;8.40;99.90;;;;;;5006615;28;20240;-80
2021/12/18 06:03:51;;;;;;;188.70;177.97;;;8.40;99.90;;;;;;5013215;28;20195;-79
2021/12/18 06:06:17;;;;;;;190.20;179.10;;;8.40;99.90;;;;;;5005175;28;20187;-78
2021/12/18 06:08:43;;;;;;;210.10;198.27;;;8.40;99.90;;;;;;5013085;28;20536;-80
2021/12/18 06:11:17;;;;;;;220.67;208.13;;;8.40;99.90;;;;;;5004395;28;20234;-79
2021/12/18 06:13:48;;;;;;;224.43;211.60;;;8.40;99.90;;;;;;5027775;28;20276;-79
2021/12/18 06:16:15;;;;;;;234.20;221.00;;;8.30;99.90;;;;;;5030829;28;20179;-78
2021/12/18 06:18:47;;;;;;;226.47;213.43;;;8.30;99.90;;;;;;5012629;28;20202;-78
2021/12/18 06:21:14;;;;;;;224.20;211.33;;;8.40;99.90;;;;;;5028726;28;20202;-79
2021/12/18 06:23:41;;;;;;;224.23;211.63;;;8.30;99.90;;;;;;5027446;28;20237;-78
2021/12/18 06:26:07;;;;;;;217.30;205.13;;;8.30;99.90;;;;;;4996246;28;20190;-79
2021/12/18 06:28:33;;;;;;;217.73;205.43;;;8.20;99.90;;;;;;5012959;28;20187;-78
2021/12/18 06:31:01;;;;;;;205.83;194.33;;;8.30;99.90;;;;;;4988106;28;20245;-80
2021/12/18 06:33:26;;;;;;;204.40;193.20;;;8.20;99.90;;;;;;5005815;28;20215;-80
2021/12/18 06:35:52;;;;;;;191.23;180.87;;;8.20;99.90;;;;;;4980193;28;20766;-79
2021/12/18 06:38:18;;;;;;;184.43;174.50;;;8.10;99.90;;;;;;5027633;28;20180;-78
2021/12/18 06:40:43;;;;;;;170.47;160.97;;;8.10;99.90;;;;;;5012381;28;20186;-78
2021/12/18 06:43:10;;;;;;;171.20;161.33;;;8.10;99.90;;;;;;5020928;28;20211;-77
2021/12/18 06:45:36;;;;;;;166.33;156.93;;;8.00;99.90;;;;;;5005103;28;20198;-79
2021/12/18 06:48:02;;;;;;;165.67;156.37;;;8.00;99.90;;;;;;5029818;28;20187;-79
2021/12/18 06:50:28;;;;;;;156.40;147.90;;;8.00;99.90;;;;;;5006118;28;20195;-80
2021/12/18 06:52:54;;;;;;;158.97;150.10;;;8.00;99.90;;;;;;5029610;28;20289;-79
2021/12/18 06:55:20;;;;;;;154.67;146.37;;;8.00;99.90;;;;;;5011982;28;20191;-78
2021/12/18 06:57:46;;;;;;;155.50;146.90;;;8.00;99.90;;;;;;5004618;28;20217;-79
2021/12/18 07:00:14;;;;;;;155.67;147.20;;;7.90;99.90;;;;;;5005138;28;20183;-79
2021/12/18 07:02:41;;;;;;;152.00;143.60;;;8.00;99.90;;;;;;5028744;28;20233;-78
2021/12/18 07:05:08;;;;;;;155.00;146.53;;;8.00;99.90;;;;;;5030031;28;20286;-80
2021/12/18 07:07:35;;;;;;;152.50;144.10;;;7.90;99.90;;;;;;4978526;28;20218;-79
2021/12/18 07:10:01;;;;;;;148.37;140.10;;;8.00;99.90;;;;;;5012137;28;20190;-79
2021/12/18 07:12:27;;;;;;;152.00;142.97;;;7.90;99.90;;;;;;4995395;28;20226;-80
2021/12/18 07:14:53;;;;;;;150.40;142.17;;;7.90;99.90;;;;;;5011125;28;20207;-78
2021/12/18 07:17:18;;;;;;;144.53;136.37;;;7.90;99.90;;;;;;4995115;28;20229;-78
2021/12/18 07:19:44;;;;;;;148.70;140.30;;;7.90;99.90;;;;;;5028299;28;20185;-79
2021/12/18 07:22:09;;;;;;;144.47;136.27;;;7.90;99.90;;;;;;5004669;28;20191;-79
2021/12/18 07:24:35;;;;;;;145.17;136.77;;;8.00;99.90;;;;;;4998876;28;20816;-79
2021/12/18 07:27:01;;;;;;;142.00;133.97;;;8.00;99.90;;;;;;4991866;28;20801;-79
2021/12/18 07:29:27;;;;;;;142.37;134.27;;;7.90;99.90;;;;;;4973716;28;20303;-79
2021/12/18 07:31:53;;;;;;;141.80;133.57;;;8.00;99.90;;;;;;4982563;28;20287;-78
2021/12/18 07:34:19;;;;;;;145.30;137.27;;;8.10;99.90;;;;;;5001354;28;20198;-80
2021/12/18 07:36:45;;;;;;;140.43;132.73;;;8.00;99.90;;;;;;5001821;28;20184;-79
2021/12/18 07:39:11;;;;;;;144.70;136.93;;;8.00;99.90;;;;;;4996922;28;20188;-79
2021/12/18 07:41:37;;;;;;;144.80;136.70;;;7.90;99.90;;;;;;4982931;28;20286;-78
2021/12/18 07:44:06;;;;;;;144.70;136.23;;;7.90;99.90;;;;;;4982782;28;20282;-79
2021/12/18 07:46:36;;;;;;;146.87;138.33;;;7.80;99.90;;;;;;4984025;28;20180;-79
2021/12/18 07:49:03;;;;;;;146.10;136.23;;;7.80;99.90;;;;;;4982491;28;20189;-80
2021/12/18 07:51:29;;;;;;;147.67;137.27;;;7.70;99.90;;;;;;5000243;28;20295;-78
2021/12/18 07:53:55;;;;;;;155.03;145.27;;;7.70;99.90;;;;;;4957101;28;20331;-79
2021/12/18 07:56:20;;;;;;;152.33;142.00;;;7.60;99.90;;;;;;4981994;28;20656;-79
2021/12/18 07:58:46;;;;;;;161.40;152.00;;;7.70;99.90;;;;;;4997927;28;20195;-80
2021/12/18 08:01:12;;;;;;;167.07;156.13;;;7.70;99.90;;;;;;4965923;28;20325;-78
2021/12/18 08:03:37;;;;;;;159.43;149.20;;;7.70;99.90;;;;;;5000792;28;20579;-78
2021/12/18 08:06:04;;;;;;;164.13;152.93;;;7.80;99.90;;;;;;5001296;28;20206;-79
2021/12/18 08:08:29;;;;;;;167.27;157.73;;;7.80;99.90;;;;;;4982256;28;20363;-80
2021/12/18 08:10:55;;;;;;;158.23;149.13;;;7.80;99.90;;;;;;4983132;28;20219;-79
2021/12/18 08:13:21;;;;;;;154.53;145.53;;;7.80;99.90;;;;;;4989519;28;20223;-79
2021/12/18 08:15:47;;;;;;;150.30;141.90;;;7.80;99.90;;;;;;4958633;28;20242;-78
2021/12/18 08:18:12;;;;;;;141.20;132.80;;;7.80;99.90;;;;;;4999853;28;20227;-79
2021/12/18 08:20:38;;;;;;;143.43;135.27;;;7.80;99.90;;;;;;4973414;28;20241;-79
2021/12/18 08:23:05;;;;;;;140.37;132.57;;;7.80;99.90;;;;;;4995469;28;20231;-81
2021/12/18 08:25:32;;;;;;;136.43;128.70;;;7.80;99.90;;;;;;5003926;28;20620;-80
2021/12/18 08:28:00;;;;;;;139.20;131.37;;;7.80;99.90;;;;;;4989016;28;20214;-79
2021/12/18 08:30:27;;;;;;;137.13;129.13;;;7.70;99.90;;;;;;5004122;28;20214;-80
2021/12/18 08:32:53;;;;;;;136.27;128.40;;;7.80;99.90;;;;;;5005103;28;20256;-79
2021/12/18 08:35:19;;;;;;;142.33;133.60;;;7.80;99.90;;;;;;4994296;28;20190;-79
2021/12/18 08:37:45;;;;;;;139.50;131.30;;;7.80;99.90;;;;;;5010688;28;20191;-78
2021/12/18 08:40:12;;;;;;;137.80;129.80;;;7.80;99.90;;;;;;5028403;28;20241;-79
2021/12/18 08:42:38;;;;;;;138.73;130.70;;;7.80;99.90;;;;;;5003410;28;20301;-79
2021/12/18 08:45:04;;;;;;;139.40;131.50;;;7.80;99.90;;;;;;5032165;28;20201;-79
2021/12/18 08:47:30;;;;;;;136.17;128.47;;;7.80;99.90;;;;;;5033068;28;20209;-80
2021/12/18 08:49:55;;;;;;;138.73;130.57;;;7.80;99.90;;;;;;5032597;28;20214;-79
2021/12/18 08:52:21;;;;;;;137.03;129.53;;;7.90;99.90;;;;;;5015089;28;20207;-80
2021/12/18 08:54:47;;;;;;;136.03;128.40;;;7.90;99.90;;;;;;5009350;28;20179;-79
2021/12/18 08:57:14;;;;;;;136.77;128.37;;;7.90;99.90;;;;;;4997902;28;20206;-80
2021/12/18 08:59:39;;;;;;;139.60;131.87;;;7.90;99.90;;;;;;5030887;28;20185;-80
2021/12/18 09:02:07;;;;;;;140.30;132.60;;;7.80;99.90;;;;;;5006477;28;20194;-79
2021/12/18 09:04:33;;;;;;;140.20;132.10;;;7.80;99.90;;;;;;5033633;28;20186;-80
2021/12/18 09:06:59;;;;;;;137.87;130.20;;;7.80;99.90;;;;;;5007487;28;20214;-79
2021/12/18 09:09:25;;;;;;;147.90;139.40;;;7.80;99.90;;;;;;5014167;28;20229;-81
2021/12/18 09:11:51;;;;;;;150.37;142.07;;;7.80;99.90;;;;;;5021828;28;20627;-80
2021/12/18 09:14:17;;;;;;;158.50;149.60;;;7.80;99.90;;;;;;4997343;28;20637;-80
2021/12/18 09:16:43;;;;;;;155.33;146.50;;;7.90;99.90;;;;;;4990675;28;20195;-80
2021/12/18 09:19:09;;;;;;;155.47;146.63;;;7.90;99.90;;;;;;5013927;28;20558;-80
2021/12/18 09:21:34;;;;;;;150.07;141.77;;;8.00;99.90;;;;;;4997288;28;20183;-81
2021/12/18 09:24:00;;;;;;;152.07;143.63;;;8.00;99.90;;;;;;4995424;28;20231;-80
2021/12/18 09:26:26;;;;;;;150.57;141.93;;;8.00;99.90;;;;;;5001065;28;20224;-80
2021/12/18 09:28:52;;;;;;;145.30;137.13;;;8.00;99.90;;;;;;5001431;28;20605;-80
2021/12/18 09:31:17;;;;;;;142.97;135.03;;;8.00;99.90;;;;;;4987661;28;20562;-79
2021/12/18 09:33:43;;;;;;;137.77;130.37;;;8.00;99.90;;;;;;4992882;28;20532;-81
2021/12/18 09:36:09;;;;;;;137.70;130.00;;;8.00;99.90;;;;;;4986125;28;20188;-80
2021/12/18 09:38:34;;;;;;;133.10;125.10;;;8.10;99.90;;;;;;4975021;28;20192;-81
2021/12/18 09:41:01;;;;;;;131.77;124.47;;;8.20;99.90;;;;;;5008329;28;20210;-80
2021/12/18 09:43:28;;;;;;;134.50;126.80;;;8.30;99.90;;;;;;4997534;28;20227;-81
2021/12/18 09:45:59;;;;;;;133.90;126.30;;;8.30;99.90;;;;;;4990952;28;20196;-79
2021/12/18 09:48:25;;;;;;;127.07;119.73;;;8.40;99.90;;;;;;5001610;28;20199;-81
2021/12/18 09:50:56;;;;;;;130.17;123.27;;;8.40;99.90;;;;;;4968802;28;20654;-80
2021/12/18 09:53:21;;;;;;;130.73;123.83;;;8.40;99.90;;;;;;4990800;28;20207;-81
2021/12/18 09:55:47;;;;;;;127.17;120.37;;;8.40;99.90;;;;;;5002682;28;20238;-81
2021/12/18 09:58:13;;;;;;;127.47;120.47;;;8.40;99.90;;;;;;5000658;28;20632;-80
2021/12/18 10:00:38;;;;;;;127.93;121.33;;;8.40;99.90;;;;;;4999787;28;20187;-80
2021/12/18 10:03:04;;;;;;;126.23;119.63;;;8.40;99.90;;;;;;5003015;28;20223;-80
2021/12/18 10:05:32;;;;;;;125.30;118.73;;;8.40;99.90;;;;;;5002206;28;20258;-81
2021/12/18 10:08:08;;;;;;;129.07;121.83;;;8.40;99.90;;;;;;5000264;28;20260;-80
2021/12/18 10:10:35;;;;;;;122.10;115.27;;;8.40;99.90;;;;;;5002829;28;20190;-80
2021/12/18 10:13:07;;;;;;;127.67;120.97;;;8.40;99.90;;;;;;4983402;28;20238;-80
2021/12/18 10:15:34;;;;;;;122.90;116.00;;;8.40;99.90;;;;;;5001831;28;20238;-80
2021/12/18 10:18:05;;;;;;;118.37;112.17;;;8.40;99.90;;;;;;5000848;28;20191;-80
2021/12/18 10:20:30;;;;;;;121.60;115.10;;;8.50;99.90;;;;;;5000176;28;20212;-79
2021/12/18 10:23:04;;;;;;;123.63;116.97;;;8.50;99.90;;;;;;4986874;28;20192;-79
2021/12/18 10:25:38;;;;;;;119.93;113.27;;;8.50;99.90;;;;;;4996391;28;20202;-81
2021/12/18 10:28:16;;;;;;;123.53;117.13;;;8.50;99.90;;;;;;5011693;28;20198;-79
2021/12/18 10:30:48;;;;;;;122.13;115.87;;;8.50;99.90;;;;;;5021307;28;20264;-81
2021/12/18 10:33:14;;;;;;;123.17;116.93;;;8.50;99.90;;;;;;5028055;28;20745;-81
2021/12/18 10:35:48;;;;;;;122.23;115.83;;;8.50;99.90;;;;;;5022967;28;20203;-80
2021/12/18 10:38:44;;;;;;;121.20;115.07;;;8.50;99.90;;;;;;5029267;28;20635;-80
2021/12/18 10:41:19;;;;;;;119.50;113.03;;;8.50;99.90;;;;;;5011409;28;20179;-81
2021/12/18 10:44:08;;;;;;;121.23;114.93;;;8.50;99.90;;;;;;5029048;28;20183;-81
2021/12/18 10:46:38;;;;;;;120.00;113.90;;;8.50;99.90;;;;;;5027460;28;20187;-79
2021/12/18 10:49:17;;;;;;;122.10;115.53;;;8.50;99.90;;;;;;5012383;28;20202;-81
2021/12/18 10:51:45;;;;;;;122.43;116.00;;;8.50;99.90;;;;;;5011810;28;20273;-81
2021/12/18 10:54:19;;;;;;;121.53;115.20;;;8.40;99.90;;;;;;5006737;28;20932;-81
2021/12/18 10:56:55;;;;;;;119.73;113.30;;;8.40;99.90;;;;;;5005933;28;20222;-80
2021/12/18 10:59:27;;;;;;;118.50;112.30;;;8.40;99.90;;;;;;5020814;28;20221;-80
2021/12/18 11:01:55;;;;;;;119.90;113.60;;;8.50;99.90;;;;;;5029415;28;20187;-80
2021/12/18 11:04:31;;;;;;;116.20;110.20;;;8.50;99.90;;;;;;5029113;28;20193;-80
2021/12/18 11:06:58;;;;;;;115.03;108.90;;;8.40;99.90;;;;;;5020951;28;20248;-81
2021/12/18 11:09:34;;;;;;;118.07;111.80;;;8.40;99.90;;;;;;4989189;28;20208;-78
2021/12/18 11:14:34;;;;;;;114.43;108.57;;;8.40;99.90;;;;;;5011977;28;20219;-79
2021/12/18 11:17:03;;;;;;;113.87;107.67;;;8.40;99.90;;;;;;5019863;28;20193;-80
2021/12/18 11:19:31;;;;;;;113.27;107.27;;;8.40;99.90;;;;;;4994838;28;20584;-80
2021/12/18 11:22:03;;;;;;;114.07;108.27;;;8.30;99.90;;;;;;4994801;28;20187;-80
2021/12/18 11:24:39;;;;;;;118.60;111.07;;;8.30;99.90;;;;;;5028563;28;20246;-81
2021/12/18 11:27:09;;;;;;;116.87;110.53;;;8.30;99.90;;;;;;5030150;28;20194;-79
2021/12/18 11:29:47;;;;;;;119.00;112.80;;;8.20;99.90;;;;;;5028660;28;20187;-79
2021/12/18 11:32:25;;;;;;;118.20;111.73;;;8.20;99.90;;;;;;5020426;28;20207;-79
2021/12/18 11:34:54;;;;;;;114.87;108.83;;;8.10;99.90;;;;;;5003372;28;21662;-80
2021/12/18 11:37:22;;;;;;;111.20;105.23;;;8.20;99.90;;;;;;5004260;28;20257;-79
2021/12/18 11:39:49;;;;;;;112.37;106.43;;;8.20;99.90;;;;;;5028694;28;20678;-79
2021/12/18 11:42:17;;;;;;;113.70;108.10;;;8.20;99.90;;;;;;4995143;28;20675;-80
2021/12/18 11:44:52;;;;;;;111.00;105.30;;;8.20;99.90;;;;;;5004243;28;20194;-80
2021/12/18 11:47:28;;;;;;;108.37;102.97;;;8.10;99.90;;;;;;5020628;28;20295;-80
2021/12/18 11:50:07;;;;;;;111.87;106.07;;;8.10;99.90;;;;;;5012108;28;20217;-80
2021/12/18 11:53:01;;;;;;;110.47;104.87;;;8.20;99.90;;;;;;5029292;28;20198;-79
2021/12/18 11:55:34;;;;;;;106.83;101.20;;;8.20;99.90;;;;;;5004649;28;20240;-80
2021/12/18 11:58:02;;;;;;;108.43;103.03;;;8.20;99.90;;;;;;5026980;28;20213;-79
2021/12/18 12:00:38;;;;;;;109.43;103.73;;;8.20;99.90;;;;;;5021091;28;20619;-79
2021/12/18 12:03:06;;;;;;;107.50;102.17;;;8.30;99.90;;;;;;5026352;28;20264;-79
2021/12/18 12:05:42;;;;;;;110.33;104.93;;;8.30;99.90;;;;;;5019912;28;20663;-80
2021/12/18 12:08:40;;;;;;;110.37;104.67;;;8.40;99.90;;;;;;5027685;28;20187;-79
2021/12/18 12:11:25;;;;;;;106.87;101.40;;;8.40;99.90;;;;;;5001564;28;20395;-81
2021/12/18 12:14:11;;;;;;;107.30;101.10;;;8.40;99.90;;;;;;5026294;28;20299;-80
2021/12/18 12:16:46;;;;;;;109.50;103.87;;;8.50;99.90;;;;;;5017889;28;20214;-79
2021/12/18 12:19:37;;;;;;;112.17;106.37;;;8.50;99.90;;;;;;5028410;28;20194;-80
2021/12/18 12:22:06;;;;;;;110.03;104.33;;;8.50;99.90;;;;;;5018522;28;20691;-80
2021/12/18 12:24:54;;;;;;;108.03;102.73;;;8.50;99.90;;;;;;5020204;28;20242;-79
2021/12/18 12:27:38;;;;;;;104.40;99.10;;;8.50;99.90;;;;;;5029202;28;20214;-79
2021/12/18 12:30:11;;;;;;;106.83;101.30;;;8.50;99.90;;;;;;5026869;28;20199;-80
2021/12/18 12:32:37;;;;;;;106.73;101.37;;;8.40;99.90;;;;;;5026049;28;20206;-80
2021/12/18 12:35:09;;;;;;;107.07;101.60;;;8.50;99.90;;;;;;4992554;28;20967;-79
2021/12/18 12:37:36;;;;;;;108.03;102.63;;;8.40;99.90;;;;;;5010739;28;20187;-80
2021/12/18 12:40:14;;;;;;;105.37;99.30;;;8.50;99.90;;;;;;5028014;28;20187;-80
2021/12/18 12:43:01;;;;;;;104.57;99.37;;;8.40;99.90;;;;;;5010687;28;20706;-80
2021/12/18 12:45:39;;;;;;;105.40;100.00;;;8.40;99.90;;;;;;5010560;28;20202;-78
2021/12/18 12:48:05;;;;;;;105.67;100.37;;;8.40;99.90;;;;;;5005240;28;20199;-80
2021/12/18 12:50:32;;;;;;;103.67;98.37;;;8.40;99.90;;;;;;5003518;28;20194;-80
2021/12/18 12:53:02;;;;;;;101.67;96.37;;;8.50;99.90;;;;;;5010279;28;20211;-80
2021/12/18 12:55:36;;;;;;;99.83;94.73;;;8.50;99.90;;;;;;5010555;28;20179;-79
2021/12/18 12:58:03;;;;;;;95.33;90.63;;;8.50;99.90;;;;;;5010262;28;20203;-80
2021/12/18 13:00:29;;;;;;;96.73;92.10;;;8.50;99.90;;;;;;5028642;28;20254;-79
2021/12/18 13:03:05;;;;;;;97.57;92.77;;;8.50;99.90;;;;;;5028864;28;20203;-80
2021/12/18 13:05:31;;;;;;;98.37;93.37;;;8.60;99.90;;;;;;5011461;28;20187;-80
2021/12/18 13:08:01;;;;;;;97.53;92.53;;;8.60;99.90;;;;;;4987675;28;20195;-78
2021/12/18 13:10:35;;;;;;;95.20;90.40;;;8.60;99.90;;;;;;4987554;28;20209;-81